sensor_id;sensor_type;location;lat;lon;timestamp;temperature;humidity
22747;DHT22;11540;52.130;5.648;2022-09-03T00:05:21;17.10;99.90
22747;DHT22;11540;52.130;5.648;2022-09-03T00:10:30;17.00;99.90
22747;DHT22;11540;52.130;5.648;2022-09-03T00:13:02;17.00;99.90
22747;DHT22;11540;52.130;5.648;2022-09-03T00:15:31;16.90;99.90
22747;DHT22;11540;52.130;5.648;2022-09-03T00:18:05;16.90;99.90
22747;DHT22;11540;52.130;5.648;2022-09-03T00:20:53;16.90;99.90
22747;DHT22;11540;52.130;5.648;2022-09-03T00:23:25;16.90;99.90
22747;DHT22;11540;52.130;5.648;2022-09-03T00:28:41;16.90;99.90
22747;DHT22;11540;52.130;5.648;2022-09-03T00:33:45;16.90;99.90
22747;DHT22;11540;52.130;5.648;2022-09-03T00:36:17;16.90;99.90
22747;DHT22;11540;52.130;5.648;2022-09-03T00:38:44;16.90;99.90
22747;DHT22;11540;52.130;5.648;2022-09-03T00:41:32;16.80;99.90
22747;DHT22;11540;52.130;5.648;2022-09-03T00:44:20;16.80;99.90
22747;DHT22;11540;52.130;5.648;2022-09-03T00:49:38;16.70;99.90
22747;DHT22;11540;52.130;5.648;2022-09-03T00:57:40;16.70;99.90
22747;DHT22;11540;52.130;5.648;2022-09-03T01:00:13;16.70;99.90
22747;DHT22;11540;52.130;5.648;2022-09-03T01:03:08;16.70;99.90
22747;DHT22;11540;52.130;5.648;2022-09-03T01:05:48;16.70;99.90
22747;DHT22;11540;52.130;5.648;2022-09-03T01:11:17;16.60;99.90
22747;DHT22;11540;52.130;5.648;2022-09-03T01:13:51;16.60;99.90
22747;DHT22;11540;52.130;5.648;2022-09-03T01:16:27;16.60;99.90
22747;DHT22;11540;52.130;5.648;2022-09-03T01:24:45;16.50;99.90
22747;DHT22;11540;52.130;5.648;2022-09-03T01:30:20;16.40;99.90
22747;DHT22;11540;52.130;5.648;2022-09-03T01:33:24;16.40;99.90
22747;DHT22;11540;52.130;5.648;2022-09-03T01:35:57;16.40;99.90
22747;DHT22;11540;52.130;5.648;2022-09-03T01:45:09;16.30;99.90
22747;DHT22;11540;52.130;5.648;2022-09-03T01:50:49;16.40;99.90
22747;DHT22;11540;52.130;5.648;2022-09-03T01:59:36;16.30;99.90
22747;DHT22;11540;52.130;5.648;2022-09-03T02:02:36;16.20;99.90
22747;DHT22;11540;52.130;5.648;2022-09-03T02:07:38;16.20;99.90
22747;DHT22;11540;52.130;5.648;2022-09-03T02:10:07;16.10;99.90
22747;DHT22;11540;52.130;5.648;2022-09-03T02:12:34;16.20;99.90
22747;DHT22;11540;52.130;5.648;2022-09-03T02:15:09;16.10;99.90
22747;DHT22;11540;52.130;5.648;2022-09-03T02:17:36;16.10;99.90
22747;DHT22;11540;52.130;5.648;2022-09-03T02:20:08;16.10;99.90
22747;DHT22;11540;52.130;5.648;2022-09-03T02:22:37;16.00;99.90
22747;DHT22;11540;52.130;5.648;2022-09-03T02:25:04;16.00;99.90
22747;DHT22;11540;52.130;5.648;2022-09-03T02:27:30;16.00;99.90
22747;DHT22;11540;52.130;5.648;2022-09-03T02:29:56;16.10;99.90
22747;DHT22;11540;52.130;5.648;2022-09-03T02:32:22;16.00;99.90
22747;DHT22;11540;52.130;5.648;2022-09-03T02:34:48;16.00;99.90
22747;DHT22;11540;52.130;5.648;2022-09-03T02:37:15;16.00;99.90
22747;DHT22;11540;52.130;5.648;2022-09-03T02:39:42;16.00;99.90
22747;DHT22;11540;52.130;5.648;2022-09-03T02:42:08;16.00;99.90
22747;DHT22;11540;52.130;5.648;2022-09-03T02:47:30;16.00;99.90
22747;DHT22;11540;52.130;5.648;2022-09-03T02:49:57;15.90;99.90
22747;DHT22;11540;52.130;5.648;2022-09-03T02:52:23;15.90;99.90
22747;DHT22;11540;52.130;5.648;2022-09-03T02:54:48;15.90;99.90
22747;DHT22;11540;52.130;5.648;2022-09-03T02:57:15;15.80;99.90
22747;DHT22;11540;52.130;5.648;2022-09-03T02:59:41;15.80;99.90
22747;DHT22;11540;52.130;5.648;2022-09-03T03:02:09;15.80;99.90
22747;DHT22;11540;52.130;5.648;2022-09-03T03:04:36;15.70;99.90
22747;DHT22;11540;52.130;5.648;2022-09-03T03:07:01;15.70;99.90
22747;DHT22;11540;52.130;5.648;2022-09-03T03:09:27;15.70;99.90
22747;DHT22;11540;52.130;5.648;2022-09-03T03:11:53;15.70;99.90
22747;DHT22;11540;52.130;5.648;2022-09-03T03:14:20;15.70;99.90
22747;DHT22;11540;52.130;5.648;2022-09-03T03:16:47;15.60;99.90
22747;DHT22;11540;52.130;5.648;2022-09-03T03:19:12;15.60;99.90
22747;DHT22;11540;52.130;5.648;2022-09-03T03:21:38;15.60;99.90
22747;DHT22;11540;52.130;5.648;2022-09-03T03:24:04;15.50;99.90
22747;DHT22;11540;52.130;5.648;2022-09-03T03:26:29;15.50;99.90
22747;DHT22;11540;52.130;5.648;2022-09-03T03:28:57;15.50;99.90
22747;DHT22;11540;52.130;5.648;2022-09-03T03:31:23;15.50;99.90
22747;DHT22;11540;52.130;5.648;2022-09-03T03:33:55;15.50;99.90
22747;DHT22;11540;52.130;5.648;2022-09-03T03:36:21;15.50;99.90
22747;DHT22;11540;52.130;5.648;2022-09-03T03:38:47;15.40;99.90
22747;DHT22;11540;52.130;5.648;2022-09-03T03:41:17;15.40;99.90
22747;DHT22;11540;52.130;5.648;2022-09-03T03:43:43;15.40;99.90
22747;DHT22;11540;52.130;5.648;2022-09-03T03:46:09;15.30;99.90
22747;DHT22;11540;52.130;5.648;2022-09-03T03:48:34;15.30;99.90
22747;DHT22;11540;52.130;5.648;2022-09-03T03:51:01;15.30;99.90
22747;DHT22;11540;52.130;5.648;2022-09-03T03:53:32;15.30;99.90
22747;DHT22;11540;52.130;5.648;2022-09-03T03:55:59;15.20;99.90
22747;DHT22;11540;52.130;5.648;2022-09-03T03:58:26;15.20;99.90
22747;DHT22;11540;52.130;5.648;2022-09-03T04:00:52;15.30;99.90
22747;DHT22;11540;52.130;5.648;2022-09-03T04:03:18;15.20;99.90
22747;DHT22;11540;52.130;5.648;2022-09-03T04:05:53;15.20;99.90
22747;DHT22;11540;52.130;5.648;2022-09-03T04:08:18;15.20;99.90
22747;DHT22;11540;52.130;5.648;2022-09-03T04:10:44;15.10;99.90
22747;DHT22;11540;52.130;5.648;2022-09-03T04:13:09;15.10;99.90
22747;DHT22;11540;52.130;5.648;2022-09-03T04:15:35;15.00;99.90
22747;DHT22;11540;52.130;5.648;2022-09-03T04:18:01;15.00;99.90
22747;DHT22;11540;52.130;5.648;2022-09-03T04:20:26;15.00;99.90
22747;DHT22;11540;52.130;5.648;2022-09-03T04:22:52;14.90;99.90
22747;DHT22;11540;52.130;5.648;2022-09-03T04:25:17;14.90;99.90
22747;DHT22;11540;52.130;5.648;2022-09-03T04:27:43;14.80;99.90
22747;DHT22;11540;52.130;5.648;2022-09-03T04:30:08;14.70;99.90
22747;DHT22;11540;52.130;5.648;2022-09-03T04:32:34;14.70;99.90
22747;DHT22;11540;52.130;5.648;2022-09-03T04:35:18;14.70;99.90
22747;DHT22;11540;52.130;5.648;2022-09-03T04:37:45;14.80;99.90
22747;DHT22;11540;52.130;5.648;2022-09-03T04:40:10;14.70;99.90
22747;DHT22;11540;52.130;5.648;2022-09-03T04:42:36;14.80;99.90
22747;DHT22;11540;52.130;5.648;2022-09-03T04:45:01;14.80;99.90
22747;DHT22;11540;52.130;5.648;2022-09-03T04:47:27;14.80;99.90
22747;DHT22;11540;52.130;5.648;2022-09-03T04:49:53;14.70;99.90
22747;DHT22;11540;52.130;5.648;2022-09-03T04:52:19;14.70;99.90
22747;DHT22;11540;52.130;5.648;2022-09-03T04:54:45;14.80;99.90
22747;DHT22;11540;52.130;5.648;2022-09-03T04:57:10;14.80;99.90
22747;DHT22;11540;52.130;5.648;2022-09-03T04:59:36;14.70;99.90
22747;DHT22;11540;52.130;5.648;2022-09-03T05:02:01;14.70;99.90
22747;DHT22;11540;52.130;5.648;2022-09-03T05:04:27;14.80;99.90
22747;DHT22;11540;52.130;5.648;2022-09-03T05:06:52;14.80;99.90
22747;DHT22;11540;52.130;5.648;2022-09-03T05:09:18;14.80;99.90
22747;DHT22;11540;52.130;5.648;2022-09-03T05:11:44;14.80;99.90
22747;DHT22;11540;52.130;5.648;2022-09-03T05:14:09;14.80;99.90
22747;DHT22;11540;52.130;5.648;2022-09-03T05:16:36;14.80;99.90
22747;DHT22;11540;52.130;5.648;2022-09-03T05:19:02;14.90;99.90
22747;DHT22;11540;52.130;5.648;2022-09-03T05:21:30;14.90;99.90
22747;DHT22;11540;52.130;5.648;2022-09-03T05:23:55;15.00;99.90
22747;DHT22;11540;52.130;5.648;2022-09-03T05:26:22;15.10;99.90
22747;DHT22;11540;52.130;5.648;2022-09-03T05:28:51;15.10;99.90
22747;DHT22;11540;52.130;5.648;2022-09-03T05:31:17;15.10;99.90
22747;DHT22;11540;52.130;5.648;2022-09-03T05:33:44;15.20;99.90
22747;DHT22;11540;52.130;5.648;2022-09-03T05:36:11;15.30;99.90
22747;DHT22;11540;52.130;5.648;2022-09-03T05:38:37;15.30;99.90
22747;DHT22;11540;52.130;5.648;2022-09-03T05:41:04;15.40;99.90
22747;DHT22;11540;52.130;5.648;2022-09-03T05:43:30;15.50;99.90
22747;DHT22;11540;52.130;5.648;2022-09-03T05:45:56;15.50;99.90
22747;DHT22;11540;52.130;5.648;2022-09-03T05:48:22;15.60;99.90
22747;DHT22;11540;52.130;5.648;2022-09-03T05:50:48;15.60;99.90
22747;DHT22;11540;52.130;5.648;2022-09-03T05:53:13;15.60;99.90
22747;DHT22;11540;52.130;5.648;2022-09-03T05:55:39;15.70;99.90
22747;DHT22;11540;52.130;5.648;2022-09-03T05:58:04;15.60;99.90
22747;DHT22;11540;52.130;5.648;2022-09-03T06:00:30;15.60;99.90
22747;DHT22;11540;52.130;5.648;2022-09-03T06:02:55;15.60;99.90
22747;DHT22;11540;52.130;5.648;2022-09-03T06:05:22;15.70;99.90
22747;DHT22;11540;52.130;5.648;2022-09-03T06:07:47;15.70;99.90
22747;DHT22;11540;52.130;5.648;2022-09-03T06:10:16;15.80;99.90
22747;DHT22;11540;52.130;5.648;2022-09-03T06:12:42;15.80;99.90
22747;DHT22;11540;52.130;5.648;2022-09-03T06:15:14;15.80;99.90
22747;DHT22;11540;52.130;5.648;2022-09-03T06:17:39;15.90;99.90
22747;DHT22;11540;52.130;5.648;2022-09-03T06:20:05;16.00;99.90
22747;DHT22;11540;52.130;5.648;2022-09-03T06:22:31;16.00;99.90
22747;DHT22;11540;52.130;5.648;2022-09-03T06:24:56;16.10;99.90
22747;DHT22;11540;52.130;5.648;2022-09-03T06:27:21;16.10;99.90
22747;DHT22;11540;52.130;5.648;2022-09-03T06:29:47;16.10;99.90
22747;DHT22;11540;52.130;5.648;2022-09-03T06:32:13;16.20;99.90
22747;DHT22;11540;52.130;5.648;2022-09-03T06:34:39;16.20;99.90
22747;DHT22;11540;52.130;5.648;2022-09-03T06:37:05;16.30;99.90
22747;DHT22;11540;52.130;5.648;2022-09-03T06:39:30;16.40;99.90
22747;DHT22;11540;52.130;5.648;2022-09-03T06:41:56;16.40;99.90
22747;DHT22;11540;52.130;5.648;2022-09-03T06:44:21;16.40;99.90
22747;DHT22;11540;52.130;5.648;2022-09-03T06:46:46;16.50;99.90
22747;DHT22;11540;52.130;5.648;2022-09-03T06:49:12;16.60;99.90
22747;DHT22;11540;52.130;5.648;2022-09-03T06:51:38;16.60;99.90
22747;DHT22;11540;52.130;5.648;2022-09-03T06:54:08;16.70;99.90
22747;DHT22;11540;52.130;5.648;2022-09-03T06:56:35;16.70;99.90
22747;DHT22;11540;52.130;5.648;2022-09-03T06:59:05;16.80;99.90
22747;DHT22;11540;52.130;5.648;2022-09-03T07:01:31;16.90;99.90
22747;DHT22;11540;52.130;5.648;2022-09-03T07:03:58;17.10;99.90
22747;DHT22;11540;52.130;5.648;2022-09-03T07:06:26;17.20;99.90
22747;DHT22;11540;52.130;5.648;2022-09-03T07:08:51;17.40;99.90
22747;DHT22;11540;52.130;5.648;2022-09-03T07:11:18;17.70;99.90
22747;DHT22;11540;52.130;5.648;2022-09-03T07:13:45;17.90;99.90
22747;DHT22;11540;52.130;5.648;2022-09-03T07:16:19;18.30;99.90
22747;DHT22;11540;52.130;5.648;2022-09-03T07:18:45;18.60;99.90
22747;DHT22;11540;52.130;5.648;2022-09-03T07:21:21;18.80;99.90
22747;DHT22;11540;52.130;5.648;2022-09-03T07:23:46;19.00;99.90
22747;DHT22;11540;52.130;5.648;2022-09-03T07:26:16;19.20;99.90
22747;DHT22;11540;52.130;5.648;2022-09-03T07:28:42;19.40;99.90
22747;DHT22;11540;52.130;5.648;2022-09-03T07:31:09;19.50;99.90
22747;DHT22;11540;52.130;5.648;2022-09-03T07:33:36;19.60;99.90
22747;DHT22;11540;52.130;5.648;2022-09-03T07:36:02;19.80;99.90
22747;DHT22;11540;52.130;5.648;2022-09-03T07:38:28;19.90;99.90
22747;DHT22;11540;52.130;5.648;2022-09-03T07:41:00;20.00;99.90
22747;DHT22;11540;52.130;5.648;2022-09-03T07:43:27;20.20;99.90
22747;DHT22;11540;52.130;5.648;2022-09-03T07:45:53;20.30;99.90
22747;DHT22;11540;52.130;5.648;2022-09-03T07:48:20;20.50;99.90
22747;DHT22;11540;52.130;5.648;2022-09-03T07:50:45;20.70;99.90
22747;DHT22;11540;52.130;5.648;2022-09-03T07:53:11;20.80;99.90
22747;DHT22;11540;52.130;5.648;2022-09-03T07:55:37;21.00;99.90
22747;DHT22;11540;52.130;5.648;2022-09-03T07:58:02;21.10;99.90
22747;DHT22;11540;52.130;5.648;2022-09-03T08:00:28;21.20;99.90
22747;DHT22;11540;52.130;5.648;2022-09-03T08:02:53;21.30;99.90
22747;DHT22;11540;52.130;5.648;2022-09-03T08:05:20;21.50;99.90
22747;DHT22;11540;52.130;5.648;2022-09-03T08:07:46;21.70;99.90
22747;DHT22;11540;52.130;5.648;2022-09-03T08:10:13;21.90;99.90
22747;DHT22;11540;52.130;5.648;2022-09-03T08:12:39;21.90;99.90
22747;DHT22;11540;52.130;5.648;2022-09-03T08:15:04;22.00;99.90
22747;DHT22;11540;52.130;5.648;2022-09-03T08:17:30;22.00;99.90
22747;DHT22;11540;52.130;5.648;2022-09-03T08:19:55;22.10;99.90
22747;DHT22;11540;52.130;5.648;2022-09-03T08:22:23;22.20;99.90
22747;DHT22;11540;52.130;5.648;2022-09-03T08:24:50;22.30;99.90
22747;DHT22;11540;52.130;5.648;2022-09-03T08:27:15;22.30;99.90
22747;DHT22;11540;52.130;5.648;2022-09-03T08:29:40;22.20;99.90
22747;DHT22;11540;52.130;5.648;2022-09-03T08:32:06;22.20;99.90
22747;DHT22;11540;52.130;5.648;2022-09-03T08:34:31;22.20;99.90
22747;DHT22;11540;52.130;5.648;2022-09-03T08:36:57;22.30;99.90
22747;DHT22;11540;52.130;5.648;2022-09-03T08:39:25;22.40;99.90
22747;DHT22;11540;52.130;5.648;2022-09-03T08:47:01;22.70;99.90
22747;DHT22;11540;52.130;5.648;2022-09-03T08:52:36;22.70;99.90
22747;DHT22;11540;52.130;5.648;2022-09-03T08:55:03;22.80;99.40
22747;DHT22;11540;52.130;5.648;2022-09-03T08:57:39;22.80;99.80
22747;DHT22;11540;52.130;5.648;2022-09-03T09:00:05;22.80;99.80
22747;DHT22;11540;52.130;5.648;2022-09-03T09:05:11;22.90;99.60
22747;DHT22;11540;52.130;5.648;2022-09-03T09:10:13;23.00;99.30
22747;DHT22;11540;52.130;5.648;2022-09-03T09:12:50;23.00;99.30
22747;DHT22;11540;52.130;5.648;2022-09-03T09:15:27;23.00;99.30
22747;DHT22;11540;52.130;5.648;2022-09-03T09:17:58;23.00;99.70
22747;DHT22;11540;52.130;5.648;2022-09-03T09:20:44;22.90;99.90
22747;DHT22;11540;52.130;5.648;2022-09-03T09:23:13;22.80;99.90
22747;DHT22;11540;52.130;5.648;2022-09-03T09:25:48;22.90;99.90
22747;DHT22;11540;52.130;5.648;2022-09-03T09:28:21;23.00;99.50
22747;DHT22;11540;52.130;5.648;2022-09-03T09:30:48;23.00;99.40
22747;DHT22;11540;52.130;5.648;2022-09-03T09:33:14;23.10;99.40
22747;DHT22;11540;52.130;5.648;2022-09-03T09:35:40;23.10;99.50
22747;DHT22;11540;52.130;5.648;2022-09-03T09:38:07;23.10;99.80
22747;DHT22;11540;52.130;5.648;2022-09-03T09:40:34;23.20;99.90
22747;DHT22;11540;52.130;5.648;2022-09-03T09:43:18;23.30;99.60
22747;DHT22;11540;52.130;5.648;2022-09-03T09:45:46;23.50;99.50
22747;DHT22;11540;52.130;5.648;2022-09-03T09:50:37;23.80;99.30
22747;DHT22;11540;52.130;5.648;2022-09-03T09:53:04;24.10;98.60
22747;DHT22;11540;52.130;5.648;2022-09-03T09:55:54;24.20;98.20
22747;DHT22;11540;52.130;5.648;2022-09-03T09:58:30;24.50;97.50
22747;DHT22;11540;52.130;5.648;2022-09-03T10:01:19;24.80;97.40
22747;DHT22;11540;52.130;5.648;2022-09-03T10:03:49;25.20;96.80
22747;DHT22;11540;52.130;5.648;2022-09-03T10:06:15;25.70;96.60
22747;DHT22;11540;52.130;5.648;2022-09-03T10:12:08;26.70;95.40
22747;DHT22;11540;52.130;5.648;2022-09-03T10:14:43;27.10;95.20
22747;DHT22;11540;52.130;5.648;2022-09-03T10:17:28;27.60;94.50
22747;DHT22;11540;52.130;5.648;2022-09-03T10:22:39;28.20;95.30
22747;DHT22;11540;52.130;5.648;2022-09-03T10:25:10;28.60;94.20
22747;DHT22;11540;52.130;5.648;2022-09-03T10:27:38;28.90;94.80
22747;DHT22;11540;52.130;5.648;2022-09-03T10:30:04;29.20;92.70
22747;DHT22;11540;52.130;5.648;2022-09-03T10:32:39;29.60;92.10
22747;DHT22;11540;52.130;5.648;2022-09-03T10:35:13;29.80;92.50
22747;DHT22;11540;52.130;5.648;2022-09-03T10:37:45;30.20;92.10
22747;DHT22;11540;52.130;5.648;2022-09-03T10:40:48;30.30;91.80
22747;DHT22;11540;52.130;5.648;2022-09-03T10:43:17;30.60;91.40
22747;DHT22;11540;52.130;5.648;2022-09-03T10:46:02;31.10;90.80
22747;DHT22;11540;52.130;5.648;2022-09-03T10:48:38;31.30;90.30
22747;DHT22;11540;52.130;5.648;2022-09-03T10:53:56;31.30;90.30
22747;DHT22;11540;52.130;5.648;2022-09-03T10:56:39;31.40;90.00
22747;DHT22;11540;52.130;5.648;2022-09-03T10:59:35;31.70;90.00
22747;DHT22;11540;52.130;5.648;2022-09-03T11:05:14;32.30;87.80
22747;DHT22;11540;52.130;5.648;2022-09-03T11:08:05;32.70;87.40
22747;DHT22;11540;52.130;5.648;2022-09-03T11:10:27;32.80;89.30
22747;DHT22;11540;52.130;5.648;2022-09-03T11:13:05;32.90;87.30
22747;DHT22;11540;52.130;5.648;2022-09-03T11:15:36;32.80;86.60
22747;DHT22;11540;52.130;5.648;2022-09-03T11:20:35;33.50;85.30
22747;DHT22;11540;52.130;5.648;2022-09-03T11:23:02;33.70;85.40
22747;DHT22;11540;52.130;5.648;2022-09-03T11:25:33;33.60;85.70
22747;DHT22;11540;52.130;5.648;2022-09-03T11:28:02;33.70;84.30
22747;DHT22;11540;52.130;5.648;2022-09-03T11:30:39;33.90;82.30
22747;DHT22;11540;52.130;5.648;2022-09-03T11:33:10;33.90;83.40
22747;DHT22;11540;52.130;5.648;2022-09-03T11:35:37;33.90;82.40
22747;DHT22;11540;52.130;5.648;2022-09-03T11:38:04;33.80;84.80
22747;DHT22;11540;52.130;5.648;2022-09-03T11:40:34;33.90;84.60
22747;DHT22;11540;52.130;5.648;2022-09-03T11:47:57;34.50;82.40
22747;DHT22;11540;52.130;5.648;2022-09-03T11:50:32;34.50;80.90
22747;DHT22;11540;52.130;5.648;2022-09-03T11:53:21;34.80;80.90
22747;DHT22;11540;52.130;5.648;2022-09-03T11:58:17;34.70;80.90
22747;DHT22;11540;52.130;5.648;2022-09-03T12:00:44;34.40;83.70
22747;DHT22;11540;52.130;5.648;2022-09-03T12:03:12;34.10;84.10
22747;DHT22;11540;52.130;5.648;2022-09-03T12:05:41;33.80;83.30
22747;DHT22;11540;52.130;5.648;2022-09-03T12:10:42;34.00;81.40
22747;DHT22;11540;52.130;5.648;2022-09-03T12:13:14;34.00;82.20
22747;DHT22;11540;52.130;5.648;2022-09-03T12:15:53;34.20;82.50
22747;DHT22;11540;52.130;5.648;2022-09-03T12:18:24;34.40;81.50
22747;DHT22;11540;52.130;5.648;2022-09-03T12:25:52;35.00;78.00
22747;DHT22;11540;52.130;5.648;2022-09-03T12:28:19;35.40;79.30
22747;DHT22;11540;52.130;5.648;2022-09-03T12:30:47;35.20;81.80
22747;DHT22;11540;52.130;5.648;2022-09-03T12:33:15;34.80;80.00
22747;DHT22;11540;52.130;5.648;2022-09-03T12:35:41;34.80;80.20
22747;DHT22;11540;52.130;5.648;2022-09-03T12:38:07;35.10;77.90
22747;DHT22;11540;52.130;5.648;2022-09-03T12:40:33;35.30;78.20
22747;DHT22;11540;52.130;5.648;2022-09-03T12:43:11;35.50;77.10
22747;DHT22;11540;52.130;5.648;2022-09-03T12:45:47;35.80;76.20
22747;DHT22;11540;52.130;5.648;2022-09-03T12:48:16;35.90;78.10
22747;DHT22;11540;52.130;5.648;2022-09-03T12:50:43;35.80;80.20
22747;DHT22;11540;52.130;5.648;2022-09-03T12:53:10;35.70;77.40
22747;DHT22;11540;52.130;5.648;2022-09-03T12:55:42;35.90;77.10
22747;DHT22;11540;52.130;5.648;2022-09-03T12:58:15;36.10;76.10
22747;DHT22;11540;52.130;5.648;2022-09-03T13:00:46;36.20;76.60
22747;DHT22;11540;52.130;5.648;2022-09-03T13:05:55;36.30;76.00
22747;DHT22;11540;52.130;5.648;2022-09-03T13:08:28;36.60;76.70
22747;DHT22;11540;52.130;5.648;2022-09-03T13:10:55;36.60;74.90
22747;DHT22;11540;52.130;5.648;2022-09-03T13:13:23;36.80;73.90
22747;DHT22;11540;52.130;5.648;2022-09-03T13:16:02;37.20;73.70
22747;DHT22;11540;52.130;5.648;2022-09-03T13:18:30;37.30;74.20
22747;DHT22;11540;52.130;5.648;2022-09-03T13:21:14;37.10;76.10
22747;DHT22;11540;52.130;5.648;2022-09-03T13:26:34;35.50;76.90
22747;DHT22;11540;52.130;5.648;2022-09-03T13:31:48;33.80;77.20
22747;DHT22;11540;52.130;5.648;2022-09-03T13:34:16;34.00;78.70
22747;DHT22;11540;52.130;5.648;2022-09-03T13:36:47;34.00;76.90
22747;DHT22;11540;52.130;5.648;2022-09-03T13:39:34;33.60;78.60
22747;DHT22;11540;52.130;5.648;2022-09-03T13:42:15;33.00;77.80
22747;DHT22;11540;52.130;5.648;2022-09-03T13:49:53;32.90;81.60
22747;DHT22;11540;52.130;5.648;2022-09-03T13:52:42;32.60;79.40
22747;DHT22;11540;52.130;5.648;2022-09-03T13:55:13;32.10;82.90
22747;DHT22;11540;52.130;5.648;2022-09-03T13:57:48;31.60;83.20
22747;DHT22;11540;52.130;5.648;2022-09-03T14:00:22;31.20;83.90
22747;DHT22;11540;52.130;5.648;2022-09-03T14:02:51;31.00;85.90
22747;DHT22;11540;52.130;5.648;2022-09-03T14:08:11;30.80;85.50
22747;DHT22;11540;52.130;5.648;2022-09-03T14:13:27;31.20;88.00
22747;DHT22;11540;52.130;5.648;2022-09-03T14:18:43;31.50;85.50
22747;DHT22;11540;52.130;5.648;2022-09-03T14:26:26;31.50;85.00
22747;DHT22;11540;52.130;5.648;2022-09-03T14:29:07;31.20;83.90
22747;DHT22;11540;52.130;5.648;2022-09-03T14:31:51;31.00;83.30
22747;DHT22;11540;52.130;5.648;2022-09-03T14:34:34;30.90;87.50
22747;DHT22;11540;52.130;5.648;2022-09-03T14:39:54;30.90;88.50
22747;DHT22;11540;52.130;5.648;2022-09-03T14:52:53;31.60;85.50
22747;DHT22;11540;52.130;5.648;2022-09-03T14:57:54;31.30;84.00
22747;DHT22;11540;52.130;5.648;2022-09-03T15:03:02;31.00;84.40
22747;DHT22;11540;52.130;5.648;2022-09-03T15:05:46;30.80;83.60
22747;DHT22;11540;52.130;5.648;2022-09-03T15:08:22;30.80;87.00
22747;DHT22;11540;52.130;5.648;2022-09-03T15:10:59;30.90;87.00
22747;DHT22;11540;52.130;5.648;2022-09-03T15:13:29;31.00;85.10
22747;DHT22;11540;52.130;5.648;2022-09-03T15:21:18;31.40;86.20
22747;DHT22;11540;52.130;5.648;2022-09-03T15:29:28;31.50;86.40
22747;DHT22;11540;52.130;5.648;2022-09-03T15:34:44;31.40;87.80
22747;DHT22;11540;52.130;5.648;2022-09-03T15:39:56;31.70;84.90
22747;DHT22;11540;52.130;5.648;2022-09-03T15:42:24;31.90;83.60
22747;DHT22;11540;52.130;5.648;2022-09-03T15:44:52;31.90;85.00
22747;DHT22;11540;52.130;5.648;2022-09-03T15:52:28;31.60;84.50
22747;DHT22;11540;52.130;5.648;2022-09-03T15:57:55;31.20;85.40
22747;DHT22;11540;52.130;5.648;2022-09-03T16:00:29;31.30;84.00
22747;DHT22;11540;52.130;5.648;2022-09-03T16:03:08;31.40;83.90
22747;DHT22;11540;52.130;5.648;2022-09-03T16:05:54;31.30;86.10
22747;DHT22;11540;52.130;5.648;2022-09-03T16:08:23;30.90;86.10
22747;DHT22;11540;52.130;5.648;2022-09-03T16:11:00;30.80;86.20
22747;DHT22;11540;52.130;5.648;2022-09-03T16:13:46;30.70;85.50
22747;DHT22;11540;52.130;5.648;2022-09-03T16:16:15;30.70;88.10
22747;DHT22;11540;52.130;5.648;2022-09-03T16:18:45;30.50;89.00
22747;DHT22;11540;52.130;5.648;2022-09-03T16:26:32;30.30;89.40
22747;DHT22;11540;52.130;5.648;2022-09-03T16:29:02;30.00;88.30
22747;DHT22;11540;52.130;5.648;2022-09-03T16:34:02;29.70;89.00
22747;DHT22;11540;52.130;5.648;2022-09-03T16:36:40;29.50;89.80
22747;DHT22;11540;52.130;5.648;2022-09-03T16:42:56;29.50;90.90
22747;DHT22;11540;52.130;5.648;2022-09-03T16:52:29;29.30;90.20
22747;DHT22;11540;52.130;5.648;2022-09-03T16:55:05;29.30;90.00
22747;DHT22;11540;52.130;5.648;2022-09-03T17:00:20;29.20;90.30
22747;DHT22;11540;52.130;5.648;2022-09-03T17:28:56;26.60;95.10
22747;DHT22;11540;52.130;5.648;2022-09-03T17:40:25;25.80;96.90
22747;DHT22;11540;52.130;5.648;2022-09-03T17:43:06;25.50;97.00
22747;DHT22;11540;52.130;5.648;2022-09-03T17:45:50;25.40;97.00
22747;DHT22;11540;52.130;5.648;2022-09-03T17:51:00;25.00;97.80
22747;DHT22;11540;52.130;5.648;2022-09-03T17:53:51;24.80;98.10
22747;DHT22;11540;52.130;5.648;2022-09-03T17:56:24;24.60;98.40
22747;DHT22;11540;52.130;5.648;2022-09-03T17:59:18;24.40;98.80
22747;DHT22;11540;52.130;5.648;2022-09-03T18:02:03;24.20;98.90
22747;DHT22;11540;52.130;5.648;2022-09-03T18:07:31;23.80;99.10
22747;DHT22;11540;52.130;5.648;2022-09-03T18:15:24;23.30;99.60
22747;DHT22;11540;52.130;5.648;2022-09-03T18:18:11;23.20;99.90
22747;DHT22;11540;52.130;5.648;2022-09-03T18:20:49;23.00;99.90
22747;DHT22;11540;52.130;5.648;2022-09-03T18:23:58;22.90;99.90
22747;DHT22;11540;52.130;5.648;2022-09-03T18:27:32;22.80;99.90
22747;DHT22;11540;52.130;5.648;2022-09-03T18:29:51;22.70;99.90
22747;DHT22;11540;52.130;5.648;2022-09-03T18:32:36;22.50;99.90
22747;DHT22;11540;52.130;5.648;2022-09-03T18:35:20;22.30;99.90
22747;DHT22;11540;52.130;5.648;2022-09-03T18:38:06;22.10;99.90
22747;DHT22;11540;52.130;5.648;2022-09-03T18:41:10;22.00;99.90
22747;DHT22;11540;52.130;5.648;2022-09-03T18:58:53;21.70;99.90
22747;DHT22;11540;52.130;5.648;2022-09-03T19:01:41;21.80;99.90
22747;DHT22;11540;52.130;5.648;2022-09-03T19:04:33;21.80;99.90
22747;DHT22;11540;52.130;5.648;2022-09-03T19:07:22;21.70;99.90
22747;DHT22;11540;52.130;5.648;2022-09-03T19:10:27;21.60;99.90
22747;DHT22;11540;52.130;5.648;2022-09-03T19:16:18;21.40;99.90
22747;DHT22;11540;52.130;5.648;2022-09-03T19:19:16;21.40;99.90
22747;DHT22;11540;52.130;5.648;2022-09-03T19:22:26;21.20;99.90
22747;DHT22;11540;52.130;5.648;2022-09-03T19:25:13;21.00;99.90
22747;DHT22;11540;52.130;5.648;2022-09-03T19:37:14;20.40;99.90
22747;DHT22;11540;52.130;5.648;2022-09-03T19:40:09;20.30;99.90
22747;DHT22;11540;52.130;5.648;2022-09-03T19:45:53;20.00;99.90
22747;DHT22;11540;52.130;5.648;2022-09-03T19:51:57;19.90;99.90
22747;DHT22;11540;52.130;5.648;2022-09-03T19:54:36;19.80;99.90
22747;DHT22;11540;52.130;5.648;2022-09-03T19:57:20;19.80;99.90
22747;DHT22;11540;52.130;5.648;2022-09-03T20:00:05;19.90;99.90
22747;DHT22;11540;52.130;5.648;2022-09-03T20:02:49;19.90;99.90
22747;DHT22;11540;52.130;5.648;2022-09-03T20:05:33;19.80;99.90
22747;DHT22;11540;52.130;5.648;2022-09-03T20:08:18;19.70;99.90
22747;DHT22;11540;52.130;5.648;2022-09-03T20:11:02;19.50;99.90
22747;DHT22;11540;52.130;5.648;2022-09-03T20:13:29;19.40;99.90
22747;DHT22;11540;52.130;5.648;2022-09-03T20:16:16;19.20;99.90
22747;DHT22;11540;52.130;5.648;2022-09-03T20:18:52;19.20;99.90
22747;DHT22;11540;52.130;5.648;2022-09-03T20:21:30;19.10;99.90
22747;DHT22;11540;52.130;5.648;2022-09-03T20:24:07;19.00;99.90
22747;DHT22;11540;52.130;5.648;2022-09-03T20:31:39;18.80;99.90
22747;DHT22;11540;52.130;5.648;2022-09-03T20:37:07;18.70;99.90